createdAt,value
2023-01-20T00:01:57.813Z,9.00
2023-01-20T00:04:27.951Z,10.80
2023-01-20T00:06:58.502Z,11.87
2023-01-20T00:09:28.896Z,14.30
2023-01-20T00:11:59.113Z,12.53
2023-01-20T00:14:29.970Z,10.40
2023-01-20T00:17:03.027Z,9.80
2023-01-20T00:19:36.585Z,11.03
2023-01-20T00:22:07.023Z,12.00
2023-01-20T00:24:38.124Z,11.83
2023-01-20T00:27:09.203Z,11.07
2023-01-20T00:29:44.155Z,9.40
2023-01-20T00:32:17.351Z,10.63
2023-01-20T00:34:47.453Z,8.70
2023-01-20T00:37:20.456Z,10.20
2023-01-20T00:39:50.597Z,8.70
2023-01-20T00:42:20.930Z,10.27
2023-01-20T00:44:52.391Z,9.33
2023-01-20T00:47:25.622Z,9.90
2023-01-20T00:49:58.396Z,9.80
2023-01-20T00:52:29.365Z,9.70
2023-01-20T00:55:02.401Z,8.50
2023-01-20T00:57:32.835Z,10.43
2023-01-20T01:00:02.947Z,11.80
2023-01-20T01:02:41.137Z,10.73
2023-01-20T01:05:12.767Z,9.00
2023-01-20T01:07:43.755Z,10.23
2023-01-20T01:10:14.831Z,10.60
2023-01-20T01:12:45.666Z,12.13
2023-01-20T01:15:18.773Z,10.10
2023-01-20T01:17:52.060Z,10.13
2023-01-20T01:20:22.362Z,10.70
2023-01-20T01:22:52.600Z,10.10
2023-01-20T01:25:23.364Z,11.03
2023-01-20T01:27:53.690Z,8.83
2023-01-20T01:30:25.156Z,10.50
2023-01-20T01:32:59.967Z,11.20
2023-01-20T01:35:30.038Z,12.37
2023-01-20T01:38:00.235Z,10.73
2023-01-20T01:40:30.363Z,12.50
2023-01-20T01:43:01.811Z,11.57
2023-01-20T01:45:35.321Z,12.57
2023-01-20T01:48:13.223Z,12.07
2023-01-20T01:50:51.108Z,14.07
2023-01-20T01:53:21.269Z,11.43
2023-01-20T01:55:56.680Z,10.00
2023-01-20T01:58:35.293Z,12.07
2023-01-20T02:01:06.088Z,13.23
2023-01-20T02:03:47.682Z,14.23
2023-01-20T02:06:20.950Z,10.43
2023-01-20T02:08:52.084Z,13.20
2023-01-20T02:11:22.206Z,18.13
2023-01-20T02:13:52.435Z,12.33
2023-01-20T02:16:38.033Z,13.53
2023-01-20T02:19:49.892Z,11.00
2023-01-20T02:22:39.261Z,12.90
2023-01-20T02:25:59.353Z,14.33
2023-01-20T02:29:14.494Z,11.57
2023-01-20T02:32:29.236Z,12.17
2023-01-20T02:35:05.977Z,11.60
2023-01-20T02:37:50.697Z,13.50
2023-01-20T02:40:35.531Z,12.53
2023-01-20T02:43:15.289Z,11.97
2023-01-20T02:45:53.535Z,12.57
2023-01-20T02:48:35.502Z,11.40
2023-01-20T02:51:14.313Z,10.50
2023-01-20T02:53:52.476Z,10.10
2023-01-20T02:56:28.203Z,13.70
2023-01-20T02:59:03.893Z,12.40
2023-01-20T03:01:42.369Z,11.67
2023-01-20T03:04:22.818Z,11.50
2023-01-20T03:06:57.619Z,12.20
2023-01-20T03:09:38.069Z,11.13
2023-01-20T03:12:18.354Z,11.83
2023-01-20T03:14:48.646Z,13.07
2023-01-20T03:17:18.906Z,9.53
2023-01-20T03:19:52.031Z,11.20
2023-01-20T03:22:25.372Z,11.03
2023-01-20T03:24:58.503Z,12.60
2023-01-20T03:27:29.257Z,11.20
2023-01-20T03:29:59.400Z,14.43
2023-01-20T03:32:31.953Z,12.13
2023-01-20T03:35:04.762Z,10.23
2023-01-20T03:37:35.029Z,10.07
2023-01-20T03:40:05.369Z,14.20
2023-01-20T03:42:46.530Z,11.70
2023-01-20T03:45:26.434Z,11.97
2023-01-20T03:48:07.196Z,11.13
2023-01-20T03:50:56.536Z,13.00
2023-01-20T03:53:38.274Z,12.77
2023-01-20T03:56:17.600Z,12.03
2023-01-20T03:58:53.692Z,13.30
2023-01-20T04:01:33.335Z,13.07
2023-01-20T04:04:06.713Z,12.60
2023-01-20T04:06:41.791Z,10.87
2023-01-20T04:09:15.712Z,14.50
2023-01-20T04:11:45.959Z,14.57
2023-01-20T04:14:16.060Z,12.77
2023-01-20T04:16:56.095Z,16.70
2023-01-20T04:19:26.798Z,10.63
2023-01-20T04:22:09.083Z,11.53
2023-01-20T04:24:51.763Z,10.00
2023-01-20T04:27:21.878Z,11.77
2023-01-20T04:29:53.171Z,11.30
2023-01-20T04:32:23.375Z,9.57
2023-01-20T04:34:54.151Z,11.10
2023-01-20T04:37:26.945Z,9.17
2023-01-20T04:39:56.987Z,11.60
2023-01-20T04:42:27.172Z,9.37
2023-01-20T04:44:57.249Z,10.03
2023-01-20T04:47:27.582Z,10.03
2023-01-20T04:49:57.880Z,13.90
2023-01-20T04:52:30.680Z,13.93
2023-01-20T04:55:03.710Z,13.57
2023-01-20T04:57:33.825Z,11.73
2023-01-20T05:00:04.178Z,14.53
2023-01-20T05:02:34.448Z,13.83
2023-01-20T05:05:04.535Z,12.73
2023-01-20T05:07:37.273Z,8.97
2023-01-20T05:10:09.145Z,9.93
2023-01-20T05:12:40.620Z,8.47
2023-01-20T05:15:14.364Z,9.23
2023-01-20T05:17:45.085Z,12.03
2023-01-20T05:20:15.403Z,11.17
2023-01-20T05:22:48.197Z,13.03
2023-01-20T05:25:18.469Z,22.93
2023-01-20T05:27:48.668Z,20.90
2023-01-20T05:30:19.451Z,16.13
2023-01-20T05:32:52.116Z,15.93
2023-01-20T05:35:25.312Z,19.10
2023-01-20T05:38:01.250Z,15.27
2023-01-20T05:40:31.321Z,15.17
2023-01-20T05:43:02.911Z,13.27
2023-01-20T05:45:36.298Z,12.53
2023-01-20T05:48:07.479Z,16.93
2023-01-20T05:50:37.562Z,10.93
2023-01-20T05:53:10.280Z,12.60
2023-01-20T05:55:40.369Z,27.33
2023-01-20T05:58:11.098Z,15.13
2023-01-20T06:00:41.989Z,12.50
2023-01-20T06:03:14.615Z,15.93
2023-01-20T06:05:44.695Z,12.90
2023-01-20T06:08:20.352Z,10.40
2023-01-20T06:10:50.647Z,11.13
2023-01-20T06:13:20.821Z,12.30
2023-01-20T06:15:55.244Z,14.43
2023-01-20T06:18:27.135Z,20.63
2023-01-20T06:21:00.842Z,15.63
2023-01-20T06:23:33.576Z,14.83
2023-01-20T06:26:06.608Z,16.53
2023-01-20T06:28:37.756Z,12.60
2023-01-20T06:31:10.879Z,11.77
2023-01-20T06:33:41.364Z,12.63
2023-01-20T06:36:16.258Z,10.23
2023-01-20T06:38:51.085Z,10.23
2023-01-20T06:41:23.441Z,11.57
2023-01-20T06:43:54.562Z,11.93
2023-01-20T06:46:25.072Z,10.17
2023-01-20T06:49:00.321Z,12.10
2023-01-20T06:51:33.474Z,11.90
2023-01-20T06:54:06.492Z,9.97
2023-01-20T06:56:36.567Z,10.37
2023-01-20T06:59:06.722Z,8.43
2023-01-20T07:01:36.862Z,12.50
2023-01-20T07:04:08.311Z,8.17
2023-01-20T07:06:41.586Z,12.70
2023-01-20T07:09:16.388Z,9.67
2023-01-20T07:11:46.412Z,11.77
2023-01-20T07:14:16.585Z,11.00
2023-01-20T07:16:46.734Z,10.33
2023-01-20T07:19:17.119Z,15.57
2023-01-20T07:21:47.223Z,20.60
2023-01-20T07:24:20.120Z,21.30
2023-01-20T07:26:50.197Z,14.07
2023-01-20T07:29:20.331Z,32.30
2023-01-20T07:31:50.473Z,45.23
2023-01-20T07:34:20.635Z,80.50
2023-01-20T07:36:54.456Z,53.40
2023-01-20T07:39:27.145Z,43.73
2023-01-20T07:41:57.268Z,28.70
2023-01-20T07:44:27.396Z,26.60
2023-01-20T07:46:57.474Z,18.70
2023-01-20T07:49:29.292Z,13.73
2023-01-20T07:52:00.217Z,11.83
2023-01-20T07:54:35.952Z,12.53
2023-01-20T07:57:06.848Z,24.27
2023-01-20T07:59:37.105Z,25.00
2023-01-20T08:02:07.455Z,19.57
2023-01-20T08:04:37.667Z,15.50
2023-01-20T08:07:07.787Z,15.33
2023-01-20T08:09:41.699Z,16.30
2023-01-20T08:12:13.259Z,16.97
2023-01-20T08:14:43.332Z,14.60
2023-01-20T08:17:13.410Z,14.20
2023-01-20T08:19:43.527Z,11.10
2023-01-20T08:22:13.742Z,15.13
2023-01-20T08:24:48.719Z,17.10
2023-01-20T08:27:19.893Z,15.07
2023-01-20T08:29:50.436Z,14.10
2023-01-20T08:32:20.577Z,13.20
2023-01-20T08:34:50.735Z,13.57
2023-01-20T08:37:20.995Z,15.90
2023-01-20T08:39:53.730Z,18.10
2023-01-20T08:42:25.361Z,9.70
2023-01-20T08:44:55.773Z,11.87
2023-01-20T08:47:26.470Z,19.60
2023-01-20T08:50:00.371Z,9.53
2023-01-20T08:52:30.605Z,15.00
2023-01-20T08:55:03.278Z,12.33
2023-01-20T08:57:33.838Z,8.47
2023-01-20T09:00:05.529Z,10.57
2023-01-20T09:02:35.695Z,6.32
2023-01-20T09:05:08.775Z,6.75
2023-01-20T09:07:39.185Z,8.63
2023-01-20T09:10:14.197Z,6.85
2023-01-20T09:12:44.351Z,10.38
2023-01-20T09:15:15.925Z,8.25
2023-01-20T09:17:46.319Z,8.60
2023-01-20T09:20:16.960Z,7.65
2023-01-20T09:22:52.672Z,8.95
2023-01-20T09:25:25.492Z,8.15
2023-01-20T09:27:55.723Z,12.63
2023-01-20T09:30:25.812Z,9.93
2023-01-20T09:32:57.312Z,7.90
2023-01-20T09:35:27.911Z,10.45
2023-01-20T09:38:10.518Z,13.52
2023-01-20T09:41:09.961Z,9.35
2023-01-20T09:43:58.777Z,7.15
2023-01-20T09:47:08.498Z,10.93
2023-01-20T09:50:03.916Z,10.30
2023-01-20T09:52:52.326Z,10.63
2023-01-20T09:55:31.556Z,10.63
2023-01-20T09:58:19.462Z,6.43
2023-01-20T10:00:58.438Z,8.60
2023-01-20T10:03:38.605Z,7.60
2023-01-20T10:06:16.150Z,7.93
2023-01-20T10:09:05.542Z,7.40
2023-01-20T10:11:41.656Z,8.73
2023-01-20T10:14:25.272Z,8.40
2023-01-20T10:17:07.124Z,8.23
2023-01-20T10:19:49.861Z,11.17
2023-01-20T10:22:28.923Z,6.47
2023-01-20T10:25:09.650Z,9.77
2023-01-20T10:27:49.228Z,8.93
2023-01-20T10:30:31.677Z,8.70
2023-01-20T10:33:11.088Z,8.40
2023-01-20T10:35:46.340Z,7.43
2023-01-20T10:38:29.260Z,7.87
2023-01-20T10:41:14.616Z,5.93
2023-01-20T10:43:46.180Z,9.00
2023-01-20T10:46:56.795Z,8.33
2023-01-20T10:50:10.682Z,7.90
2023-01-20T10:53:13.680Z,7.30
2023-01-20T10:56:09.720Z,7.27
2023-01-20T10:58:47.667Z,9.17
2023-01-20T11:01:22.129Z,7.23
2023-01-20T11:03:54.908Z,7.10
2023-01-20T11:06:29.312Z,6.40
2023-01-20T11:09:04.201Z,9.77
2023-01-20T11:11:39.354Z,10.33
2023-01-20T11:14:11.599Z,8.90
2023-01-20T11:16:46.723Z,10.50
2023-01-20T11:19:19.559Z,8.93
2023-01-20T11:21:52.237Z,10.43
2023-01-20T11:24:44.023Z,10.33
2023-01-20T11:27:21.911Z,6.67
2023-01-20T11:29:59.345Z,8.10
2023-01-20T11:32:36.885Z,9.63
2023-01-20T11:35:25.316Z,7.27
2023-01-20T11:37:55.655Z,7.97
2023-01-20T11:40:28.566Z,8.40
2023-01-20T11:42:58.855Z,7.97
2023-01-20T11:45:36.170Z,10.93
2023-01-20T11:48:23.718Z,10.93
2023-01-20T11:50:58.894Z,8.57
2023-01-20T11:53:31.862Z,9.47
2023-01-20T11:56:07.217Z,9.03
2023-01-20T11:58:55.870Z,16.20
2023-01-20T12:01:28.967Z,14.23
2023-01-20T12:04:44.318Z,16.10
2023-01-20T12:07:25.378Z,12.70
2023-01-20T12:10:18.863Z,7.70
2023-01-20T12:12:59.383Z,10.47
2023-01-20T12:15:36.261Z,8.80
2023-01-20T12:18:19.484Z,10.93
2023-01-20T12:20:58.952Z,10.43
2023-01-20T12:23:45.950Z,8.47
2023-01-20T12:26:18.463Z,9.07
2023-01-20T12:28:58.644Z,10.07
2023-01-20T12:31:32.477Z,10.97
2023-01-20T12:34:06.851Z,9.80
2023-01-20T12:37:16.818Z,10.17
2023-01-20T12:40:11.515Z,11.77
2023-01-20T12:43:18.477Z,9.53
2023-01-20T12:46:07.970Z,9.23
2023-01-20T12:48:51.867Z,8.57
2023-01-20T12:51:47.525Z,9.43
2023-01-20T12:54:54.442Z,8.27
2023-01-20T12:57:56.323Z,10.87
2023-01-20T13:01:19.799Z,11.67
2023-01-20T13:04:36.656Z,13.00
2023-01-20T13:07:41.282Z,16.13
2023-01-20T13:10:32.325Z,15.07
2023-01-20T13:13:19.945Z,10.80
2023-01-20T13:16:00.325Z,12.33
2023-01-20T13:18:46.529Z,13.17
2023-01-20T13:21:21.163Z,13.40
2023-01-20T13:23:53.454Z,14.47
2023-01-20T13:26:25.364Z,11.47
2023-01-20T13:29:01.186Z,10.93
2023-01-20T13:31:47.173Z,8.33
2023-01-20T13:34:42.117Z,8.70
2023-01-20T13:37:30.155Z,12.40
2023-01-20T13:40:02.290Z,9.93
2023-01-20T13:42:53.938Z,7.60
2023-01-20T13:45:29.892Z,8.70
2023-01-20T13:48:24.949Z,8.30
2023-01-20T13:50:55.051Z,7.63
2023-01-20T13:53:31.001Z,7.47
2023-01-20T13:56:04.815Z,9.80
2023-01-20T13:58:36.761Z,6.13
2023-01-20T14:01:15.505Z,5.27
2023-01-20T14:03:45.971Z,5.10
2023-01-20T14:06:26.690Z,6.73
2023-01-20T14:08:57.494Z,6.37
2023-01-20T14:11:30.366Z,4.53
2023-01-20T14:14:09.491Z,5.17
2023-01-20T14:16:45.166Z,7.37
2023-01-20T14:19:27.564Z,6.30
2023-01-20T14:22:01.819Z,6.47
2023-01-20T14:24:35.112Z,9.97
2023-01-20T14:27:20.422Z,7.70
2023-01-20T14:29:53.561Z,7.10
2023-01-20T14:32:30.605Z,6.57
2023-01-20T14:35:01.680Z,5.90
2023-01-20T14:37:34.897Z,6.63
2023-01-20T14:40:24.341Z,6.00
2023-01-20T14:43:03.417Z,5.90
2023-01-20T14:45:36.115Z,6.07
2023-01-20T14:48:09.916Z,7.47
2023-01-20T14:50:45.454Z,8.03
2023-01-20T14:53:19.844Z,11.90
2023-01-20T14:56:04.535Z,11.53
2023-01-20T14:58:35.134Z,8.03
2023-01-20T15:01:08.456Z,8.27
2023-01-20T15:03:43.485Z,8.00
2023-01-20T15:06:24.517Z,7.13
2023-01-20T15:09:06.743Z,6.33
2023-01-20T15:11:41.058Z,6.93
2023-01-20T15:14:15.901Z,9.33
2023-01-20T15:16:53.592Z,7.17
2023-01-20T15:19:37.949Z,11.30
2023-01-20T15:22:25.658Z,8.60
2023-01-20T15:25:06.025Z,59.10
2023-01-20T15:27:37.760Z,7.90
2023-01-20T15:30:24.168Z,7.43
2023-01-20T15:32:55.237Z,8.70
2023-01-20T15:35:28.529Z,8.80
2023-01-20T15:37:58.660Z,7.23
2023-01-20T15:40:31.417Z,9.03
2023-01-20T15:43:01.555Z,8.17
2023-01-20T15:45:35.015Z,8.30
2023-01-20T15:48:08.146Z,7.03
2023-01-20T15:50:42.016Z,7.50
2023-01-20T15:53:12.727Z,8.43
2023-01-20T15:55:51.592Z,9.50
2023-01-20T15:58:28.803Z,8.37
2023-01-20T16:01:01.471Z,10.33
2023-01-20T16:03:34.980Z,9.63
2023-01-20T16:06:16.164Z,9.53
2023-01-20T16:08:49.751Z,9.87
2023-01-20T16:11:22.395Z,12.77
2023-01-20T16:13:52.741Z,12.10
2023-01-20T16:16:29.579Z,12.43
2023-01-20T16:18:59.794Z,12.83
2023-01-20T16:21:32.435Z,18.40
2023-01-20T16:24:02.581Z,16.53
2023-01-20T16:26:37.305Z,18.83
2023-01-20T16:29:07.464Z,18.47
2023-01-20T16:31:37.558Z,18.00
2023-01-20T16:34:08.386Z,15.57
2023-01-20T16:36:43.472Z,14.77
2023-01-20T16:39:14.240Z,17.30
2023-01-20T16:41:51.477Z,15.53
2023-01-20T16:44:21.596Z,17.10
2023-01-20T16:46:54.003Z,15.43
2023-01-20T16:49:24.237Z,14.77
2023-01-20T16:51:56.878Z,15.63
2023-01-20T16:54:27.099Z,15.07
2023-01-20T16:56:57.187Z,16.57
2023-01-20T16:59:27.287Z,17.43
2023-01-20T17:01:57.437Z,14.83
2023-01-20T17:04:27.968Z,15.03
2023-01-20T17:07:00.667Z,16.63
2023-01-20T17:09:30.845Z,16.27
2023-01-20T17:12:00.930Z,22.07
2023-01-20T17:14:31.069Z,57.37
2023-01-20T17:17:01.175Z,18.37
2023-01-20T17:19:31.424Z,20.97
2023-01-20T17:22:04.305Z,19.10
2023-01-20T17:24:39.757Z,16.60
2023-01-20T17:27:09.969Z,13.93
2023-01-20T17:29:40.046Z,16.00
2023-01-20T17:32:12.393Z,12.20
2023-01-20T17:34:42.413Z,13.63
2023-01-20T17:37:15.166Z,14.53
2023-01-20T17:39:46.068Z,18.73
2023-01-20T17:42:17.697Z,13.10
2023-01-20T17:44:47.831Z,14.20
2023-01-20T17:47:17.914Z,12.97
2023-01-20T17:49:47.981Z,14.33
2023-01-20T17:52:22.596Z,13.97
2023-01-20T17:54:52.768Z,14.20
2023-01-20T17:57:25.585Z,16.67
2023-01-20T17:59:58.201Z,10.97
2023-01-20T18:02:30.785Z,12.27
2023-01-20T18:05:01.181Z,11.83
2023-01-20T18:07:33.931Z,11.70
2023-01-20T18:10:04.054Z,10.20
2023-01-20T18:12:34.168Z,12.13
2023-01-20T18:15:04.309Z,11.40
2023-01-20T18:17:34.511Z,10.93
2023-01-20T18:20:05.084Z,12.43
2023-01-20T18:22:37.862Z,12.60
2023-01-20T18:25:08.957Z,11.10
2023-01-20T18:27:39.038Z,10.67
2023-01-20T18:30:11.715Z,10.43
2023-01-20T18:32:41.779Z,11.00
2023-01-20T18:35:11.981Z,11.07
2023-01-20T18:37:44.761Z,11.33
2023-01-20T18:40:18.396Z,10.80
2023-01-20T18:42:48.738Z,8.67
2023-01-20T18:45:19.176Z,9.80
2023-01-20T18:47:52.139Z,9.43
2023-01-20T18:50:22.472Z,9.60
2023-01-20T18:52:56.143Z,9.73
2023-01-20T18:55:26.598Z,8.70
2023-01-20T18:57:56.908Z,9.77
2023-01-20T19:00:27.056Z,10.43
2023-01-20T19:03:00.927Z,10.43
2023-01-20T19:05:31.033Z,12.10
2023-01-20T19:08:03.756Z,11.97
2023-01-20T19:10:34.114Z,12.00
2023-01-20T19:13:04.207Z,11.80
2023-01-20T19:15:34.331Z,11.33
2023-01-20T19:18:06.615Z,14.80
2023-01-20T19:20:36.790Z,22.37
2023-01-20T19:23:09.589Z,15.30
2023-01-20T19:25:39.684Z,14.87
2023-01-20T19:28:11.007Z,13.03
2023-01-20T19:30:41.425Z,11.30
2023-01-20T19:33:12.701Z,13.40
2023-01-20T19:35:43.391Z,12.30
2023-01-20T19:38:16.407Z,13.27
2023-01-20T19:40:46.531Z,15.83
2023-01-20T19:43:16.657Z,13.57
2023-01-20T19:45:46.872Z,11.50
2023-01-20T19:48:19.803Z,19.30
2023-01-20T19:50:50.121Z,19.47
2023-01-20T19:53:22.825Z,19.23
2023-01-20T19:55:52.844Z,17.73
2023-01-20T19:58:22.925Z,18.33
2023-01-20T20:00:53.041Z,27.07
2023-01-20T20:03:23.147Z,19.27
2023-01-20T20:05:53.258Z,16.93
2023-01-20T20:08:26.967Z,18.23
2023-01-20T20:10:59.285Z,17.33
2023-01-20T20:13:29.389Z,17.60
2023-01-20T20:16:07.857Z,18.50
2023-01-20T20:18:38.096Z,17.13
2023-01-20T20:21:08.581Z,17.57
2023-01-20T20:23:41.245Z,20.83
2023-01-20T20:26:15.057Z,18.03
2023-01-20T20:28:45.181Z,16.93
2023-01-20T20:31:17.779Z,16.80
2023-01-20T20:33:48.989Z,17.77
2023-01-20T20:36:19.349Z,19.40
2023-01-20T20:38:54.052Z,18.07
2023-01-20T20:41:25.854Z,18.77
2023-01-20T20:43:59.647Z,16.47
2023-01-20T20:46:30.620Z,15.90
2023-01-20T20:49:02.989Z,16.23
2023-01-20T20:51:35.874Z,25.53
2023-01-20T20:54:09.185Z,46.07
2023-01-20T20:56:39.361Z,28.00
2023-01-20T20:59:09.533Z,22.03
2023-01-20T21:01:39.956Z,22.50
2023-01-20T21:04:11.561Z,20.63
2023-01-20T21:06:41.645Z,22.00
2023-01-20T21:09:14.399Z,20.97
2023-01-20T21:11:44.451Z,24.80
2023-01-20T21:14:14.677Z,24.37
2023-01-20T21:16:44.896Z,26.63
2023-01-20T21:19:17.639Z,23.43
2023-01-20T21:21:47.760Z,23.70
2023-01-20T21:24:25.933Z,24.90
2023-01-20T21:26:56.233Z,21.73
2023-01-20T21:29:27.599Z,22.30
2023-01-20T21:31:57.728Z,23.20
2023-01-20T21:34:31.142Z,21.00
2023-01-20T21:37:01.360Z,21.40
2023-01-20T21:39:34.075Z,22.87
2023-01-20T21:42:06.066Z,27.37
2023-01-20T21:44:36.753Z,26.10
2023-01-20T21:47:11.003Z,24.37
2023-01-20T21:49:53.554Z,22.47
2023-01-20T21:52:39.760Z,23.40
2023-01-20T21:55:19.099Z,24.23
2023-01-20T21:57:51.156Z,24.57
2023-01-20T22:00:23.072Z,24.47
2023-01-20T22:02:53.241Z,25.10
2023-01-20T22:05:23.463Z,22.00
2023-01-20T22:07:53.569Z,23.07
2023-01-20T22:10:26.319Z,20.47
2023-01-20T22:12:56.392Z,23.03
2023-01-20T22:15:26.521Z,26.73
2023-01-20T22:17:56.605Z,25.30
2023-01-20T22:20:28.120Z,23.57
2023-01-20T22:22:58.305Z,25.90
2023-01-20T22:25:31.063Z,25.73
2023-01-20T22:28:01.162Z,27.73
2023-01-20T22:30:31.326Z,30.13
2023-01-20T22:33:01.431Z,28.80
2023-01-20T22:35:33.018Z,30.13
2023-01-20T22:38:03.129Z,32.00
2023-01-20T22:40:36.217Z,30.77
2023-01-20T22:43:06.434Z,28.37
2023-01-20T22:45:36.671Z,32.23
2023-01-20T22:48:07.155Z,32.67
2023-01-20T22:50:37.445Z,30.03
2023-01-20T22:53:07.582Z,31.63
2023-01-20T22:55:52.334Z,30.20
2023-01-20T22:58:30.201Z,30.53
2023-01-20T23:01:02.759Z,32.57
2023-01-20T23:03:33.069Z,37.37
2023-01-20T23:06:03.731Z,37.50
2023-01-20T23:08:35.049Z,68.40
2023-01-20T23:11:11.984Z,49.43
2023-01-20T23:13:43.120Z,39.77
2023-01-20T23:16:18.187Z,35.40
2023-01-20T23:18:49.477Z,36.73
2023-01-20T23:21:20.009Z,31.03
2023-01-20T23:23:54.545Z,28.90
2023-01-20T23:26:47.589Z,31.97
2023-01-20T23:29:37.698Z,32.33
2023-01-20T23:32:28.125Z,29.73
2023-01-20T23:35:18.430Z,35.63
2023-01-20T23:38:09.242Z,49.43
2023-01-20T23:40:59.389Z,37.83
2023-01-20T23:43:52.215Z,42.67
2023-01-20T23:46:42.335Z,49.73
2023-01-20T23:49:32.427Z,43.73
2023-01-20T23:52:26.079Z,40.97
2023-01-20T23:55:18.986Z,84.17
2023-01-20T23:58:09.104Z,39.90
